Time;durP1;ratioP1;P1;durP2;ratioP2;P2;SDS_P1;SDS_P2;PMS_P1;PMS_P2;Temp;Humidity;BMP_temperature;BMP_pressure;BME280_temperature;BME280_humidity;BME280_pressure;Samples;Min_cycle;Max_cycle;Signal;HPM_P1;HPM_P2
2023/04/12 00:01:30;;;;;;;0.50;0.40;;;10.20;99.90;;;;;;5074569;28;20249;-77
2023/04/12 00:03:58;;;;;;;0.50;0.40;;;10.20;99.90;;;;;;5069111;28;20281;-78
2023/04/12 00:06:31;;;;;;;2.08;0.60;;;10.20;99.90;;;;;;5063982;28;20242;-78
2023/04/12 00:08:58;;;;;;;0.85;0.60;;;10.20;99.90;;;;;;5068691;28;20234;-78
2023/04/12 00:11:26;;;;;;;0.60;0.50;;;10.20;99.90;;;;;;5073759;28;20232;-78
2023/04/12 00:13:53;;;;;;;0.50;0.40;;;10.20;99.90;;;;;;5066690;28;20191;-78
2023/04/12 00:16:19;;;;;;;0.60;0.57;;;10.20;99.90;;;;;;5063045;28;20234;-78
2023/04/12 00:18:47;;;;;;;0.63;0.60;;;10.20;99.90;;;;;;5074557;28;20678;-79
2023/04/12 00:21:18;;;;;;;1.48;0.70;;;10.20;99.90;;;;;;5066544;28;20275;-78
2023/04/12 00:23:45;;;;;;;0.90;0.70;;;10.20;99.90;;;;;;5059097;28;20285;-78
2023/04/12 00:26:13;;;;;;;0.50;0.47;;;10.20;99.90;;;;;;5066657;28;20217;-78
2023/04/12 00:28:41;;;;;;;1.85;0.85;;;10.10;99.90;;;;;;5075433;28;20198;-77
2023/04/12 00:31:08;;;;;;;0.68;0.68;;;10.10;99.90;;;;;;5067428;28;20312;-78
2023/04/12 00:33:35;;;;;;;0.60;0.50;;;10.00;99.90;;;;;;5070285;28;20221;-77
2023/04/12 00:36:01;;;;;;;1.35;0.77;;;9.80;99.90;;;;;;5067899;28;20198;-78
2023/04/12 00:38:30;;;;;;;3.17;0.50;;;9.60;99.90;;;;;;5063441;28;20206;-77
2023/04/12 00:40:56;;;;;;;0.57;0.55;;;9.50;99.90;;;;;;5067602;28;20224;-78
2023/04/12 00:43:26;;;;;;;1.25;1.25;;;9.30;99.90;;;;;;5065523;28;20634;-77
2023/04/12 00:45:56;;;;;;;0.95;0.88;;;9.20;99.90;;;;;;5073369;28;20198;-77
2023/04/12 00:48:23;;;;;;;0.90;0.77;;;9.10;99.90;;;;;;5073026;28;20244;-78
2023/04/12 00:50:50;;;;;;;3.53;0.80;;;9.00;99.90;;;;;;5064749;28;20221;-79
2023/04/12 00:53:18;;;;;;;0.50;0.40;;;8.90;99.90;;;;;;5066276;28;20213;-80
2023/04/12 00:55:46;;;;;;;0.60;0.60;;;8.80;99.90;;;;;;5066079;28;20195;-78
2023/04/12 00:58:14;;;;;;;0.70;0.60;;;8.80;99.90;;;;;;5065448;28;20278;-80
2023/04/12 01:00:43;;;;;;;0.50;0.40;;;8.70;99.90;;;;;;5067961;28;20224;-79
2023/04/12 01:03:10;;;;;;;0.68;0.68;;;8.70;99.90;;;;;;5069523;28;20197;-80
2023/04/12 01:05:48;;;;;;;0.50;0.40;;;8.70;99.90;;;;;;5067791;28;20260;-78
2023/04/12 01:08:22;;;;;;;0.50;0.40;;;8.70;99.90;;;;;;5077379;28;20631;-79
2023/04/12 01:11:01;;;;;;;0.50;0.40;;;8.60;99.90;;;;;;5057765;28;20217;-79
2023/04/12 01:13:34;;;;;;;0.50;0.40;;;8.60;99.90;;;;;;5073974;28;20205;-79
2023/04/12 01:16:07;;;;;;;0.73;0.55;;;8.60;99.90;;;;;;5070271;28;20666;-79
2023/04/12 01:18:40;;;;;;;0.63;0.63;;;8.50;99.90;;;;;;5066387;28;20565;-79
2023/04/12 01:21:10;;;;;;;0.50;0.40;;;8.50;99.90;;;;;;5067935;28;20230;-79
2023/04/12 01:24:00;;;;;;;0.50;0.40;;;8.50;99.90;;;;;;5067572;28;20198;-78
2023/04/12 01:26:41;;;;;;;1.58;1.48;;;8.40;99.90;;;;;;5066537;28;20214;-79
2023/04/12 01:29:11;;;;;;;54.85;1.52;;;8.40;99.90;;;;;;5067360;28;20205;-78
2023/04/12 01:31:40;;;;;;;1.80;0.57;;;8.40;99.90;;;;;;5066767;28;20223;-79
2023/04/12 01:34:10;;;;;;;0.50;0.40;;;8.30;99.90;;;;;;5068338;28;20203;-77
2023/04/12 01:36:38;;;;;;;0.50;0.50;;;8.30;99.90;;;;;;5065662;28;20198;-77
2023/04/12 01:39:06;;;;;;;10.20;1.02;;;8.30;99.90;;;;;;5069302;28;20204;-80
2023/04/12 01:41:33;;;;;;;1.17;0.80;;;8.30;99.90;;;;;;5073067;28;20217;-78
2023/04/12 01:44:00;;;;;;;0.50;0.40;;;8.30;99.90;;;;;;5068958;28;20199;-79
2023/04/12 01:46:28;;;;;;;0.70;0.68;;;8.30;99.90;;;;;;5070592;28;20193;-79
2023/04/12 01:48:56;;;;;;;1.95;1.58;;;8.30;99.90;;;;;;5063105;28;20701;-80
2023/04/12 01:51:39;;;;;;;0.50;0.40;;;8.30;99.90;;;;;;5063368;28;20222;-78
2023/04/12 01:54:10;;;;;;;0.50;0.40;;;8.30;99.90;;;;;;5068933;28;20199;-79
2023/04/12 01:56:40;;;;;;;1.02;1.02;;;8.30;99.90;;;;;;5064845;28;20561;-75
2023/04/12 01:59:08;;;;;;;0.60;0.60;;;8.30;99.90;;;;;;5067306;28;20202;-79
2023/04/12 02:01:36;;;;;;;0.50;0.40;;;8.30;99.90;;;;;;5066648;28;20223;-78
2023/04/12 02:04:04;;;;;;;0.50;0.40;;;8.20;99.90;;;;;;5068137;28;20279;-78
2023/04/12 02:06:32;;;;;;;0.70;0.70;;;8.20;99.90;;;;;;5067220;28;20221;-79
2023/04/12 02:09:01;;;;;;;0.50;0.40;;;8.20;99.90;;;;;;5068003;28;20284;-80
2023/04/12 02:11:28;;;;;;;0.75;0.52;;;8.10;99.90;;;;;;5066135;28;20308;-79
2023/04/12 02:13:55;;;;;;;0.50;0.50;;;8.10;99.90;;;;;;5069119;28;20744;-79
2023/04/12 02:16:22;;;;;;;0.70;0.70;;;8.10;99.90;;;;;;5075205;28;20298;-79
2023/04/12 02:18:51;;;;;;;2.67;0.82;;;8.10;99.90;;;;;;5058571;28;20282;-80
2023/04/12 02:21:17;;;;;;;2.60;0.50;;;8.00;99.90;;;;;;5067353;28;20225;-79
2023/04/12 02:23:44;;;;;;;1.45;0.85;;;8.00;99.90;;;;;;5063618;28;20201;-79
2023/04/12 02:26:11;;;;;;;0.50;0.50;;;8.00;99.90;;;;;;5063203;28;20229;-79
2023/04/12 02:28:39;;;;;;;0.60;0.40;;;8.00;99.90;;;;;;5064847;28;20218;-79
2023/04/12 02:31:07;;;;;;;0.60;0.50;;;7.90;99.90;;;;;;5066328;28;20260;-79
2023/04/12 02:33:34;;;;;;;0.50;0.40;;;7.90;99.90;;;;;;5065062;28;20201;-78
2023/04/12 02:36:02;;;;;;;0.73;0.65;;;7.90;99.90;;;;;;5067675;28;20209;-79
2023/04/12 02:38:30;;;;;;;0.50;0.40;;;7.90;99.90;;;;;;5065498;28;20229;-79
2023/04/12 02:40:57;;;;;;;0.50;0.50;;;7.90;99.90;;;;;;5064377;28;20215;-79
2023/04/12 02:43:24;;;;;;;0.50;0.40;;;7.90;99.90;;;;;;5064727;28;20198;-78
2023/04/12 02:45:51;;;;;;;0.60;0.60;;;7.80;99.90;;;;;;5056236;28;20199;-78
2023/04/12 02:48:17;;;;;;;0.60;0.50;;;7.90;99.90;;;;;;5065339;28;20298;-79
2023/04/12 02:50:44;;;;;;;0.95;0.70;;;7.80;99.90;;;;;;5072690;28;20301;-78
2023/04/12 02:53:12;;;;;;;0.50;0.40;;;7.80;99.90;;;;;;5064907;28;20233;-78
2023/04/12 02:55:39;;;;;;;0.80;0.80;;;7.80;99.90;;;;;;5073648;28;20233;-78
2023/04/12 02:58:06;;;;;;;0.70;0.70;;;7.80;99.90;;;;;;5070531;28;20850;-79
2023/04/12 03:00:33;;;;;;;0.82;0.82;;;7.80;99.90;;;;;;5063890;28;20721;-78
2023/04/12 03:03:01;;;;;;;1.27;1.17;;;7.70;99.90;;;;;;5070657;28;20285;-79
2023/04/12 03:05:28;;;;;;;0.55;0.47;;;7.70;99.90;;;;;;5071944;28;20251;-78
2023/04/12 03:07:55;;;;;;;0.65;0.60;;;7.70;99.90;;;;;;5063389;28;20746;-79
2023/04/12 03:10:24;;;;;;;1.33;1.05;;;7.70;99.90;;;;;;5063983;28;20712;-79
2023/04/12 03:12:50;;;;;;;3.10;0.50;;;7.70;99.90;;;;;;5069553;28;20198;-79
2023/04/12 03:15:17;;;;;;;3.50;0.80;;;7.60;99.90;;;;;;5071423;28;20195;-79
2023/04/12 03:17:44;;;;;;;0.50;0.40;;;7.60;99.90;;;;;;5074304;28;20281;-78
2023/04/12 03:20:12;;;;;;;0.50;0.40;;;7.60;99.90;;;;;;5066733;28;20223;-78
2023/04/12 03:22:39;;;;;;;2.00;1.83;;;7.60;99.90;;;;;;5067798;28;20199;-78
2023/04/12 03:25:08;;;;;;;0.85;0.85;;;7.60;99.90;;;;;;5073613;28;20570;-78
2023/04/12 03:27:36;;;;;;;0.50;0.50;;;7.60;99.90;;;;;;5075577;28;20597;-78
2023/04/12 03:30:05;;;;;;;0.50;0.40;;;7.60;99.90;;;;;;5070055;28;20214;-78
2023/04/12 03:32:31;;;;;;;0.70;0.70;;;7.60;99.90;;;;;;5069082;28;20247;-75
2023/04/12 03:34:59;;;;;;;0.77;0.60;;;7.60;99.90;;;;;;5073532;28;20205;-78
2023/04/12 03:37:26;;;;;;;0.60;0.50;;;7.60;99.90;;;;;;5074248;28;20197;-79
2023/04/12 03:39:52;;;;;;;0.60;0.60;;;7.70;99.90;;;;;;5069853;28;20669;-79
2023/04/12 03:42:19;;;;;;;0.60;0.60;;;7.70;99.90;;;;;;5071879;28;20286;-79
2023/04/12 03:44:48;;;;;;;0.50;0.40;;;7.70;99.90;;;;;;5068050;28;20654;-79
2023/04/12 03:47:15;;;;;;;0.60;0.50;;;7.70;99.90;;;;;;5070094;28;20220;-79
2023/04/12 03:49:42;;;;;;;0.50;0.40;;;7.80;99.90;;;;;;5068066;28;20288;-78
2023/04/12 03:52:09;;;;;;;0.50;0.50;;;7.80;99.90;;;;;;5071851;28;20202;-79
2023/04/12 03:54:36;;;;;;;0.70;0.70;;;7.80;99.90;;;;;;5069140;28;20270;-77
2023/04/12 03:57:03;;;;;;;0.68;0.68;;;7.80;99.90;;;;;;5068897;28;20285;-79
2023/04/12 03:59:31;;;;;;;0.70;0.70;;;7.80;99.90;;;;;;5069230;28;20198;-77
2023/04/12 04:02:00;;;;;;;0.50;0.40;;;7.80;99.90;;;;;;5071038;28;20212;-79
2023/04/12 04:04:27;;;;;;;5.28;0.50;;;7.90;99.90;;;;;;5070248;28;20281;-79
2023/04/12 04:06:54;;;;;;;3.58;0.60;;;7.90;99.90;;;;;;5065829;28;20654;-79
2023/04/12 04:09:21;;;;;;;0.50;0.40;;;7.90;99.90;;;;;;5066013;28;20309;-80
2023/04/12 04:11:48;;;;;;;0.50;0.40;;;7.90;99.90;;;;;;5069002;28;20229;-78
2023/04/12 04:14:15;;;;;;;4.43;3.58;;;8.00;99.90;;;;;;5070468;28;20201;-80
2023/04/12 04:16:42;;;;;;;0.95;0.68;;;7.90;99.90;;;;;;5067460;28;20212;-78
2023/04/12 04:19:10;;;;;;;0.60;0.60;;;8.00;99.90;;;;;;5070708;28;20340;-79
2023/04/12 04:21:39;;;;;;;1.20;0.63;;;8.00;99.90;;;;;;5065533;28;20226;-79
2023/04/12 04:24:10;;;;;;;0.98;0.82;;;8.00;99.90;;;;;;5070742;28;20543;-78
2023/04/12 04:26:37;;;;;;;0.50;0.50;;;8.00;99.90;;;;;;5069747;28;20201;-78
2023/04/12 04:29:04;;;;;;;0.50;0.40;;;8.00;99.90;;;;;;5068597;28;20214;-79
2023/04/12 04:31:33;;;;;;;0.80;0.63;;;8.10;99.90;;;;;;5065839;28;20255;-77
2023/04/12 04:34:02;;;;;;;0.50;0.40;;;8.10;99.90;;;;;;5066983;28;20716;-79
2023/04/12 04:36:31;;;;;;;0.50;0.40;;;8.10;99.90;;;;;;5065596;28;20630;-79
2023/04/12 04:38:57;;;;;;;0.50;0.40;;;8.10;99.90;;;;;;5065973;28;20549;-78
2023/04/12 04:41:25;;;;;;;0.50;0.40;;;8.10;99.90;;;;;;5065718;28;20652;-78
2023/04/12 04:43:52;;;;;;;0.60;0.60;;;8.10;99.90;;;;;;5065530;28;20198;-78
2023/04/12 04:46:19;;;;;;;0.50;0.40;;;8.10;99.90;;;;;;5068411;28;20658;-78
2023/04/12 04:48:47;;;;;;;0.60;0.60;;;8.00;99.90;;;;;;5065830;28;20218;-79
2023/04/12 04:51:14;;;;;;;0.50;0.40;;;8.00;99.90;;;;;;5075282;28;20233;-79
2023/04/12 04:53:42;;;;;;;0.55;0.50;;;8.00;99.90;;;;;;5059531;28;20203;-80
2023/04/12 04:56:10;;;;;;;0.50;0.50;;;8.00;99.90;;;;;;5067008;28;20209;-80
2023/04/12 04:58:37;;;;;;;4.60;0.88;;;8.00;99.90;;;;;;5067202;28;20240;-80
2023/04/12 05:01:04;;;;;;;0.80;0.80;;;8.00;99.90;;;;;;5067338;28;20597;-79
2023/04/12 05:03:32;;;;;;;0.70;0.52;;;8.00;99.90;;;;;;5075395;28;20259;-79
2023/04/12 05:06:00;;;;;;;2.85;0.98;;;7.90;99.90;;;;;;5058800;28;20657;-79
2023/04/12 05:08:28;;;;;;;0.50;0.40;;;7.90;99.90;;;;;;5068008;28;20218;-78
2023/04/12 05:10:57;;;;;;;0.50;0.40;;;7.90;99.90;;;;;;5066689;28;20244;-80
2023/04/12 05:13:24;;;;;;;0.60;0.60;;;7.90;99.90;;;;;;5067039;28;20202;-79
2023/04/12 05:15:51;;;;;;;0.50;0.40;;;7.80;99.90;;;;;;5065888;28;20205;-80
2023/04/12 05:18:18;;;;;;;0.60;0.50;;;7.80;99.90;;;;;;5066233;28;20292;-79
2023/04/12 05:20:47;;;;;;;0.80;0.80;;;7.80;99.90;;;;;;5066535;28;20230;-79
2023/04/12 05:23:13;;;;;;;0.50;0.45;;;7.70;99.90;;;;;;5067161;28;20229;-78
2023/04/12 05:25:45;;;;;;;5.95;0.82;;;7.70;99.90;;;;;;5058094;28;20699;-79
2023/04/12 05:28:15;;;;;;;0.50;0.40;;;7.70;99.90;;;;;;5059390;28;20213;-79
2023/04/12 05:30:42;;;;;;;0.50;0.40;;;7.60;99.90;;;;;;5064948;28;20705;-79
2023/04/12 05:33:09;;;;;;;0.50;0.40;;;7.60;99.90;;;;;;5063214;28;20202;-79
2023/04/12 05:35:36;;;;;;;1.13;1.05;;;7.60;99.90;;;;;;5070221;28;20225;-79
2023/04/12 05:38:02;;;;;;;0.60;0.60;;;7.60;99.90;;;;;;5063247;28;20278;-80
2023/04/12 05:40:31;;;;;;;9.35;0.68;;;7.50;99.90;;;;;;5069979;28;20210;-78
2023/04/12 05:42:58;;;;;;;0.60;0.60;;;7.50;99.90;;;;;;5063386;28;20225;-79
2023/04/12 05:45:26;;;;;;;1.15;1.15;;;7.50;99.90;;;;;;5070281;28;20613;-79
2023/04/12 05:47:53;;;;;;;0.60;0.57;;;7.50;99.90;;;;;;5065533;28;20216;-79
2023/04/12 05:50:20;;;;;;;0.88;0.88;;;7.50;99.90;;;;;;5066604;28;20244;-79
2023/04/12 05:52:48;;;;;;;0.60;0.50;;;7.50;99.90;;;;;;5072563;28;20202;-79
2023/04/12 05:55:16;;;;;;;2.45;0.85;;;7.50;99.90;;;;;;5068738;28;20197;-79
2023/04/12 05:57:45;;;;;;;0.50;0.40;;;7.50;99.90;;;;;;5065728;28;20552;-79
2023/04/12 06:00:15;;;;;;;0.60;0.50;;;7.50;99.90;;;;;;5063076;28;20298;-80
2023/04/12 06:02:44;;;;;;;3.00;1.90;;;7.60;99.90;;;;;;5063360;28;20198;-79
2023/04/12 06:05:11;;;;;;;0.55;0.50;;;7.60;99.90;;;;;;5069971;28;20555;-79
2023/04/12 06:07:39;;;;;;;0.50;0.40;;;7.60;99.90;;;;;;5065252;28;20189;-80
2023/04/12 06:10:08;;;;;;;0.80;0.60;;;7.60;99.90;;;;;;5062834;28;20297;-80
2023/04/12 06:12:35;;;;;;;0.90;0.90;;;7.60;99.90;;;;;;5071908;28;20208;-80
2023/04/12 06:15:02;;;;;;;0.73;0.73;;;7.60;99.90;;;;;;5051331;28;20190;-79
2023/04/12 06:17:29;;;;;;;1.55;1.40;;;7.70;99.90;;;;;;5064161;28;20198;-80
2023/04/12 06:19:57;;;;;;;1.27;1.17;;;7.70;99.90;;;;;;5070708;28;20301;-79
2023/04/12 06:22:24;;;;;;;1.15;0.73;;;7.70;99.90;;;;;;5062317;28;20285;-80
2023/04/12 06:24:51;;;;;;;3.42;0.90;;;7.70;99.90;;;;;;5063345;28;20199;-80
2023/04/12 06:27:19;;;;;;;0.50;0.50;;;7.70;99.90;;;;;;5067590;28;20225;-80
2023/04/12 06:29:46;;;;;;;0.80;0.65;;;7.70;99.90;;;;;;5072139;28;20210;-81
2023/04/12 06:32:13;;;;;;;2.75;1.30;;;7.70;99.90;;;;;;5061614;28;20218;-80
2023/04/12 06:34:40;;;;;;;0.60;0.60;;;7.70;99.90;;;;;;5069100;28;20280;-78
2023/04/12 06:37:08;;;;;;;0.70;0.63;;;7.80;99.90;;;;;;5061747;28;20195;-78
2023/04/12 06:39:35;;;;;;;0.60;0.60;;;7.80;99.90;;;;;;5058215;28;20190;-79
2023/04/12 06:42:02;;;;;;;2.00;1.25;;;7.90;99.90;;;;;;5065149;28;20194;-79
2023/04/12 06:44:29;;;;;;;0.63;0.63;;;7.90;99.90;;;;;;5066446;28;20216;-78
2023/04/12 06:46:56;;;;;;;0.80;0.60;;;7.90;99.90;;;;;;5080529;28;20234;-78
2023/04/12 06:49:23;;;;;;;0.50;0.47;;;8.00;99.90;;;;;;5086533;28;20214;-80
2023/04/12 06:51:49;;;;;;;0.60;0.50;;;8.00;99.90;;;;;;5083354;28;20214;-80
2023/04/12 06:54:18;;;;;;;1.08;0.50;;;8.00;99.90;;;;;;5075908;28;20198;-80
2023/04/12 06:56:44;;;;;;;0.50;0.45;;;8.00;99.90;;;;;;5069627;28;20642;-80
2023/04/12 06:59:11;;;;;;;0.68;0.60;;;8.00;99.90;;;;;;5074964;28;20577;-80
2023/04/12 07:01:38;;;;;;;0.60;0.60;;;8.00;99.90;;;;;;5067327;28;20211;-80
2023/04/12 07:04:05;;;;;;;1.30;0.60;;;8.00;99.90;;;;;;5067251;28;20201;-80
2023/04/12 07:06:32;;;;;;;0.70;0.50;;;8.00;99.90;;;;;;5066120;28;20285;-80
2023/04/12 07:08:59;;;;;;;1.55;0.60;;;8.10;99.90;;;;;;5067329;28;20245;-80
2023/04/12 07:11:27;;;;;;;0.50;0.50;;;8.00;99.90;;;;;;5066928;28;20676;-80
2023/04/12 07:13:54;;;;;;;0.50;0.50;;;8.00;99.90;;;;;;5065399;28;20202;-80
2023/04/12 07:16:21;;;;;;;0.50;0.40;;;8.00;99.90;;;;;;5066292;28;20195;-79
2023/04/12 07:18:48;;;;;;;0.50;0.40;;;8.10;99.90;;;;;;5075379;28;20221;-79
2023/04/12 07:21:16;;;;;;;0.50;0.50;;;8.10;99.90;;;;;;5066505;28;20218;-79
2023/04/12 07:23:43;;;;;;;0.68;0.40;;;8.20;99.90;;;;;;5066057;28;20197;-80
2023/04/12 07:26:10;;;;;;;0.55;0.47;;;8.20;99.90;;;;;;5069755;28;20849;-79
2023/04/12 07:28:38;;;;;;;0.90;0.60;;;8.20;99.90;;;;;;5069533;28;20301;-80
2023/04/12 07:31:06;;;;;;;1.17;0.95;;;8.20;99.90;;;;;;5061417;28;20210;-80
2023/04/12 07:33:34;;;;;;;0.98;0.70;;;8.20;99.90;;;;;;5070728;28;20202;-80
2023/04/12 07:36:01;;;;;;;0.95;0.70;;;8.30;99.90;;;;;;5067938;28;20234;-79
2023/04/12 07:38:28;;;;;;;0.98;0.88;;;8.30;99.90;;;;;;5068455;28;20679;-79
2023/04/12 07:40:55;;;;;;;0.50;0.50;;;8.40;99.90;;;;;;5074810;28;20240;-80
2023/04/12 07:43:22;;;;;;;0.50;0.40;;;8.50;99.90;;;;;;5065519;28;20204;-79
2023/04/12 07:45:51;;;;;;;0.50;0.40;;;8.60;99.90;;;;;;5060539;28;20195;-79
2023/04/12 07:48:18;;;;;;;7.80;3.45;;;8.60;99.90;;;;;;5068282;28;20202;-80
2023/04/12 07:50:45;;;;;;;0.88;0.73;;;8.60;99.90;;;;;;5065475;28;20740;-80
2023/04/12 07:53:19;;;;;;;0.70;0.70;;;8.60;99.90;;;;;;5072503;28;20662;-79
2023/04/12 07:55:53;;;;;;;0.60;0.60;;;8.60;99.90;;;;;;5072444;28;20235;-79
2023/04/12 07:58:21;;;;;;;0.68;0.68;;;8.50;99.90;;;;;;5060834;28;20191;-80
2023/04/12 08:00:50;;;;;;;0.50;0.40;;;8.50;99.90;;;;;;5093024;28;20244;-81
2023/04/12 08:03:18;;;;;;;0.73;0.60;;;8.60;99.90;;;;;;5075542;28;20254;-78
2023/04/12 08:05:48;;;;;;;0.98;0.77;;;8.60;99.90;;;;;;5073832;28;20648;-78
2023/04/12 08:08:15;;;;;;;0.50;0.50;;;8.60;99.90;;;;;;5069898;28;20194;-81
2023/04/12 08:10:41;;;;;;;1.42;0.95;;;8.60;99.90;;;;;;5077190;28;20290;-80
2023/04/12 08:13:08;;;;;;;0.60;0.50;;;8.70;99.90;;;;;;5060656;28;20190;-80
2023/04/12 08:15:35;;;;;;;0.50;0.40;;;8.60;99.90;;;;;;5076318;28;20216;-80
2023/04/12 08:18:03;;;;;;;0.50;0.40;;;8.70;99.90;;;;;;5076015;28;20214;-81
2023/04/12 08:20:31;;;;;;;0.90;0.45;;;8.70;99.90;;;;;;5075650;28;20213;-78
2023/04/12 08:22:58;;;;;;;0.50;0.40;;;8.70;99.90;;;;;;5072092;22;20222;-82
2023/04/12 08:25:25;;;;;;;1.17;0.60;;;8.70;99.90;;;;;;5067000;28;20205;-80
2023/04/12 08:27:52;;;;;;;0.63;0.63;;;8.70;99.90;;;;;;5067379;28;20194;-79
2023/04/12 08:30:25;;;;;;;0.50;0.40;;;8.70;99.90;;;;;;5067716;28;20771;-81
2023/04/12 08:32:52;;;;;;;0.50;0.40;;;8.80;99.90;;;;;;5046792;28;20215;-79
2023/04/12 08:35:21;;;;;;;0.60;0.55;;;8.80;99.90;;;;;;5053136;28;20199;-78
2023/04/12 08:37:48;;;;;;;0.50;0.40;;;8.90;99.90;;;;;;5046130;28;20663;-80
2023/04/12 08:40:15;;;;;;;0.90;0.73;;;8.90;99.90;;;;;;5042186;28;20190;-81
2023/04/12 08:42:42;;;;;;;0.50;0.50;;;9.10;99.90;;;;;;5049679;28;20715;-82
2023/04/12 08:45:11;;;;;;;0.95;0.50;;;9.10;99.90;;;;;;5055528;28;20247;-82
2023/04/12 08:47:40;;;;;;;0.70;0.50;;;9.10;99.90;;;;;;5053055;28;20194;-84
2023/04/12 08:50:09;;;;;;;0.60;0.50;;;9.20;99.90;;;;;;5049489;28;20211;-83
2023/04/12 08:52:38;;;;;;;0.85;0.57;;;9.20;99.90;;;;;;5058386;28;20233;-81
2023/04/12 08:55:05;;;;;;;0.50;0.40;;;9.30;99.90;;;;;;5040965;28;20195;-81
2023/04/12 08:57:34;;;;;;;0.50;0.50;;;9.30;99.90;;;;;;5049144;28;20210;-83
2023/04/12 09:00:02;;;;;;;0.50;0.40;;;9.30;99.90;;;;;;5055891;28;20625;-82
2023/04/12 09:02:29;;;;;;;0.50;0.40;;;9.30;99.90;;;;;;5046184;28;20220;-82
2023/04/12 09:04:57;;;;;;;0.50;0.40;;;9.30;99.90;;;;;;5044937;28;20562;-82
2023/04/12 09:07:26;;;;;;;0.85;0.77;;;9.30;99.90;;;;;;5043261;28;20253;-81
2023/04/12 09:09:55;;;;;;;0.50;0.40;;;9.30;99.90;;;;;;5045461;28;20272;-81
2023/04/12 09:12:23;;;;;;;0.88;0.60;;;9.30;99.90;;;;;;5052187;28;20211;-81
2023/04/12 09:15:07;;;;;;;0.60;0.60;;;9.30;99.90;;;;;;5053059;28;20191;-82
2023/04/12 09:17:35;;;;;;;0.60;0.50;;;9.20;99.90;;;;;;5047232;28;20194;-81
2023/04/12 09:20:03;;;;;;;0.85;0.85;;;9.20;99.90;;;;;;5048087;28;20191;-83
2023/04/12 09:22:34;;;;;;;1.20;0.80;;;9.20;99.90;;;;;;5055963;28;20261;-83
2023/04/12 09:25:03;;;;;;;0.50;0.40;;;9.20;99.90;;;;;;5053977;28;20202;-81
2023/04/12 09:27:30;;;;;;;0.70;0.70;;;9.30;99.90;;;;;;5041366;28;20547;-83
2023/04/12 09:30:08;;;;;;;1.00;0.50;;;9.50;99.90;;;;;;5047283;28;20637;-83
2023/04/12 09:32:35;;;;;;;1.63;0.70;;;9.50;99.90;;;;;;5054898;28;20220;-82
2023/04/12 09:35:04;;;;;;;0.50;0.50;;;9.60;99.90;;;;;;5046976;28;20286;-81
2023/04/12 09:37:31;;;;;;;0.63;0.63;;;9.70;99.90;;;;;;5056047;28;20646;-82
2023/04/12 09:40:03;;;;;;;0.50;0.45;;;9.90;99.90;;;;;;5064002;28;20222;-81
2023/04/12 09:42:31;;;;;;;3.53;0.70;;;10.10;99.90;;;;;;5055173;28;20233;-81
2023/04/12 09:44:58;;;;;;;2.05;1.13;;;10.30;99.90;;;;;;5047446;28;20301;-82
2023/04/12 09:47:37;;;;;;;0.90;0.90;;;10.50;99.90;;;;;;5050317;28;20192;-82
2023/04/12 09:50:06;;;;;;;0.50;0.40;;;10.50;99.90;;;;;;5052490;28;20609;-82
2023/04/12 09:52:36;;;;;;;0.50;0.40;;;10.70;99.90;;;;;;5036291;28;20219;-81
2023/04/12 09:55:10;;;;;;;0.50;0.40;;;10.90;99.90;;;;;;5036579;28;20677;-82
2023/04/12 09:57:40;;;;;;;2.35;0.80;;;11.00;99.90;;;;;;5043871;28;20244;-81
2023/04/12 10:00:11;;;;;;;0.50;0.40;;;11.10;99.90;;;;;;5036463;28;20233;-81
2023/04/12 10:02:40;;;;;;;0.60;0.52;;;11.30;99.90;;;;;;5042704;28;20233;-82
2023/04/12 10:05:11;;;;;;;0.50;0.40;;;11.40;99.90;;;;;;5039625;28;20195;-83
2023/04/12 10:07:40;;;;;;;0.50;0.37;;;11.30;99.90;;;;;;5048395;28;20248;-80
2023/04/12 10:10:11;;;;;;;0.70;0.50;;;11.30;99.90;;;;;;5065421;28;20479;-79
2023/04/12 10:12:39;;;;;;;0.60;0.50;;;11.50;99.90;;;;;;5060612;28;20458;-80
2023/04/12 10:15:11;;;;;;;0.90;0.90;;;11.60;99.90;;;;;;5063118;28;20195;-80
2023/04/12 10:17:41;;;;;;;0.95;0.95;;;11.60;99.90;;;;;;5047563;28;20282;-81
2023/04/12 10:20:10;;;;;;;0.50;0.40;;;11.50;99.90;;;;;;5039249;28;20192;-82
2023/04/12 10:22:39;;;;;;;0.50;0.30;;;11.20;99.90;;;;;;5044098;28;20269;-81
2023/04/12 10:25:12;;;;;;;0.50;0.50;;;11.20;99.90;;;;;;5051345;28;20195;-80
2023/04/12 10:27:41;;;;;;;0.70;0.70;;;11.00;99.90;;;;;;5051804;28;20189;-81
2023/04/12 10:30:25;;;;;;;1.38;1.00;;;10.70;99.90;;;;;;5051780;28;20221;-81
2023/04/12 10:33:15;;;;;;;1.00;0.77;;;10.50;99.90;;;;;;5051247;28;20214;-80
2023/04/12 10:35:56;;;;;;;1.02;0.93;;;10.30;99.90;;;;;;5054868;28;20210;-82
2023/04/12 10:38:26;;;;;;;1.23;0.90;;;10.20;99.90;;;;;;5051531;28;20226;-79
2023/04/12 10:41:18;;;;;;;0.50;0.47;;;10.30;99.90;;;;;;5059768;28;20194;-81
2023/04/12 10:43:46;;;;;;;0.70;0.70;;;10.80;99.90;;;;;;5052083;28;20741;-81
2023/04/12 10:46:48;;;;;;;0.60;0.50;;;11.40;99.90;;;;;;5042273;28;20577;-80
2023/04/12 10:49:16;;;;;;;2.77;1.50;;;11.80;99.90;;;;;;5059577;28;20695;-81
2023/04/12 10:52:14;;;;;;;1.23;0.70;;;12.00;99.90;;;;;;5059980;28;20469;-82
2023/04/12 10:54:41;;;;;;;0.50;0.40;;;12.20;99.90;;;;;;5051228;28;20202;-81
2023/04/12 10:57:48;;;;;;;1.00;0.90;;;12.20;99.90;;;;;;5050968;28;20222;-80
2023/04/12 11:00:16;;;;;;;0.60;0.40;;;12.20;99.90;;;;;;5059629;28;20433;-82
2023/04/12 11:03:06;;;;;;;0.50;0.40;;;12.10;99.90;;;;;;5044154;28;20233;-82
2023/04/12 11:06:00;;;;;;;0.50;0.40;;;11.80;99.90;;;;;;5047014;28;20191;-81
2023/04/12 11:08:29;;;;;;;0.50;0.40;;;11.50;99.90;;;;;;5048305;28;20226;-81
2023/04/12 11:11:02;;;;;;;0.50;0.40;;;11.20;99.90;;;;;;5047934;28;20294;-80
2023/04/12 11:13:35;;;;;;;0.50;0.40;;;10.90;99.90;;;;;;5059220;28;20210;-81
2023/04/12 11:16:03;;;;;;;0.50;0.40;;;10.60;99.90;;;;;;5057597;28;20194;-81
2023/04/12 11:18:29;;;;;;;0.50;0.40;;;10.40;99.90;;;;;;5052050;28;20274;-82
2023/04/12 11:20:58;;;;;;;0.50;0.40;;;10.30;99.90;;;;;;5050108;28;20191;-80
2023/04/12 11:23:25;;;;;;;0.50;0.40;;;10.30;99.90;;;;;;5053879;28;20250;-80
2023/04/12 11:25:52;;;;;;;0.50;0.40;;;10.30;99.90;;;;;;5046465;28;20245;-80
2023/04/12 11:28:20;;;;;;;0.80;0.80;;;10.30;99.90;;;;;;5049916;28;20191;-80
2023/04/12 11:30:55;;;;;;;0.50;0.40;;;10.40;99.90;;;;;;5051036;28;20215;-80
2023/04/12 11:33:33;;;;;;;0.50;0.35;;;10.60;99.90;;;;;;5050707;28;20589;-79
2023/04/12 11:36:03;;;;;;;0.50;0.40;;;10.80;99.90;;;;;;5058958;28;20195;-81
2023/04/12 11:38:30;;;;;;;0.50;0.40;;;11.00;99.90;;;;;;5055323;28;20214;-80
2023/04/12 11:40:57;;;;;;;0.50;0.40;;;11.30;99.90;;;;;;5056745;28;20247;-81
2023/04/12 11:43:24;;;;;;;0.50;0.40;;;11.40;99.90;;;;;;5051302;28;20221;-79
2023/04/12 11:45:58;;;;;;;0.50;0.40;;;11.50;99.90;;;;;;5058378;28;20191;-79
2023/04/12 11:48:25;;;;;;;0.50;0.38;;;11.70;99.90;;;;;;5053112;28;20733;-80
2023/04/12 11:50:52;;;;;;;1.35;0.60;;;11.80;99.90;;;;;;5043604;28;20298;-80
2023/04/12 11:53:22;;;;;;;0.50;0.30;;;12.00;99.90;;;;;;5042057;28;20289;-81
2023/04/12 11:55:49;;;;;;;0.50;0.37;;;12.10;99.90;;;;;;5058656;28;20570;-81
2023/04/12 11:58:16;;;;;;;0.80;0.53;;;12.30;99.90;;;;;;5047087;28;21072;-83
2023/04/12 12:00:45;;;;;;;0.50;0.40;;;12.70;99.90;;;;;;5052491;28;20441;-81
2023/04/12 12:03:13;;;;;;;0.50;0.30;;;13.10;99.90;;;;;;5055964;28;20467;-82
2023/04/12 12:05:41;;;;;;;0.50;0.40;;;13.90;99.90;;;;;;5042763;28;20445;-81
2023/04/12 12:08:09;;;;;;;0.50;0.40;;;14.80;99.90;;;;;;5040213;28;20525;-81
2023/04/12 12:10:37;;;;;;;0.50;0.40;;;15.60;99.90;;;;;;5056546;28;20473;-79
2023/04/12 12:13:10;;;;;;;0.50;0.30;;;16.70;99.90;;;;;;5039613;28;20873;-80
2023/04/12 12:15:37;;;;;;;0.50;0.30;;;17.80;99.90;;;;;;5045668;28;20426;-81
2023/04/12 12:18:06;;;;;;;0.90;0.50;;;18.90;99.90;;;;;;5044108;28;20867;-81
2023/04/12 12:20:40;;;;;;;0.50;0.40;;;18.80;99.90;;;;;;5050162;28;20472;-80
2023/04/12 12:23:06;;;;;;;0.50;0.40;;;19.00;99.90;;;;;;5056639;28;20476;-79
2023/04/12 12:25:34;;;;;;;0.90;0.80;;;19.90;99.90;;;;;;5057854;28;20434;-81
2023/04/12 12:28:04;;;;;;;0.50;0.30;;;21.10;99.90;;;;;;5052457;28;20868;-81
2023/04/12 12:30:31;;;;;;;0.50;0.30;;;21.40;91.10;;;;;;5036617;28;20462;-82
2023/04/12 12:32:58;;;;;;;0.50;0.30;;;21.00;93.40;;;;;;5052585;28;20465;-82
2023/04/12 12:35:26;;;;;;;0.50;0.30;;;20.50;91.00;;;;;;5052568;28;20438;-81
2023/04/12 12:37:57;;;;;;;0.50;0.30;;;19.60;89.50;;;;;;5044733;28;20449;-81
2023/04/12 12:40:31;;;;;;;0.50;0.40;;;18.80;91.40;;;;;;5044088;28;20441;-79
2023/04/12 12:42:58;;;;;;;0.50;0.30;;;17.80;93.60;;;;;;5036110;28;20544;-83
2023/04/12 12:45:27;;;;;;;0.50;0.30;;;17.40;99.40;;;;;;5047767;28;20794;-80
2023/04/12 12:47:57;;;;;;;0.50;0.30;;;16.80;99.90;;;;;;5047852;28;20444;-82
2023/04/12 12:50:27;;;;;;;1.70;1.47;;;16.10;99.90;;;;;;5044145;28;21258;-82
2023/04/12 12:52:56;;;;;;;0.50;0.40;;;15.60;99.90;;;;;;5044177;28;20466;-81
2023/04/12 12:55:24;;;;;;;1.80;0.50;;;15.30;99.90;;;;;;5046517;28;20433;-80
2023/04/12 12:57:53;;;;;;;3.13;1.47;;;15.20;99.90;;;;;;5048083;28;20458;-82
2023/04/12 13:00:21;;;;;;;1.53;1.43;;;15.20;99.90;;;;;;5046458;28;20444;-82
2023/04/12 13:02:50;;;;;;;0.50;0.30;;;15.80;99.90;;;;;;5055127;28;20453;-80